Time;durP1;ratioP1;P1;durP2;ratioP2;P2;SDS_P1;SDS_P2;PMS_P1;PMS_P2;Temp;Humidity;BMP_temperature;BMP_pressure;BME280_temperature;BME280_humidity;BME280_pressure;Samples;Min_cycle;Max_cycle;Signal;HPM_P1;HPM_P2
2021/04/20 00:02:22;;;;;;;;;;;;;;;28.83;25.57;99946.63;5077884;28;1001;-32
2021/04/20 00:04:47;;;;;;;;;;;;;;;28.75;25.05;99949.56;5079251;28;819;-31
2021/04/20 00:07:13;;;;;;;;;;;;;;;28.55;25.49;99950.47;5079061;28;1902;-31
2021/04/20 00:09:38;;;;;;;;;;;;;;;27.68;27.02;99941.38;5079036;28;798;-34
2021/04/20 00:12:03;;;;;;;;;;;;;;;28.80;25.38;99948.94;5070793;28;1198;-31
2021/04/20 00:14:29;;;;;;;;;;;;;;;28.84;25.01;99945.56;5060591;28;1242;-34
2021/04/20 00:16:54;;;;;;;;;;;;;;;28.63;25.45;99949.41;5079161;28;983;-31
2021/04/20 00:19:19;;;;;;;;;;;;;;;27.59;27.17;99950.69;5078849;28;863;-32
2021/04/20 00:21:45;;;;;;;;;;;;;;;27.61;27.64;99945.94;5078579;28;863;-32
2021/04/20 00:24:10;;;;;;;;;;;;;;;28.02;26.88;99944.09;5077414;28;710;-32
2021/04/20 00:26:35;;;;;;;;;;;;;;;28.70;25.22;99942.09;5078636;28;1980;-34
2021/04/20 00:29:01;;;;;;;;;;;;;;;28.59;25.38;99940.06;5078703;28;917;-33
2021/04/20 00:31:26;;;;;;;;;;;;;;;27.83;26.80;99933.06;5077986;28;985;-36
2021/04/20 00:33:51;;;;;;;;;;;;;;;27.87;26.97;99936.19;5078752;28;759;-35
2021/04/20 00:36:16;;;;;;;;;;;;;;;28.50;25.96;99933.19;5078308;28;776;-32
2021/04/20 00:38:42;;;;;;;;;;;;;;;28.72;25.39;99929.19;5078852;28;814;-34
2021/04/20 00:41:08;;;;;;;;;;;;;;;28.66;25.63;99923.81;5078278;28;866;-34
2021/04/20 00:43:34;;;;;;;;;;;;;;;27.83;26.91;99926.81;5077993;28;823;-30
2021/04/20 00:45:59;;;;;;;;;;;;;;;28.91;25.19;99926.59;5083606;28;1968;-29
2021/04/20 00:48:25;;;;;;;;;;;;;;;28.31;25.16;99930.31;5096816;28;934;-32
2021/04/20 00:50:50;;;;;;;;;;;;;;;28.28;25.97;99931.56;5097902;28;836;-30
2021/04/20 00:53:15;;;;;;;;;;;;;;;28.77;25.50;99930.41;5115238;28;870;-30
2021/04/20 00:55:40;;;;;;;;;;;;;;;29.09;24.93;99935.94;5118895;28;770;-32
2021/04/20 00:58:06;;;;;;;;;;;;;;;28.79;24.96;99934.59;5118517;28;827;-31
2021/04/20 01:00:31;;;;;;;;;;;;;;;28.39;26.08;99937.41;5118849;28;775;-31
2021/04/20 01:02:57;;;;;;;;;;;;;;;27.83;27.17;99938.47;5086415;28;998;-30
2021/04/20 01:05:24;;;;;;;;;;;;;;;28.90;25.23;99934.94;5077785;28;1901;-29
2021/04/20 01:07:49;;;;;;;;;;;;;;;28.90;25.04;99930.38;5077935;28;748;-30
2021/04/20 01:10:15;;;;;;;;;;;;;;;28.72;25.44;99931.91;5077573;28;836;-30
2021/04/20 01:12:40;;;;;;;;;;;;;;;27.68;27.08;99932.38;5077691;28;1167;-30
2021/04/20 01:15:07;;;;;;;;;;;;;;;27.73;26.96;99938.03;5077782;28;1290;-29
2021/04/20 01:17:32;;;;;;;;;;;;;;;28.46;25.99;99949.88;5077699;28;1006;-30
2021/04/20 01:19:58;;;;;;;;;;;;;;;28.78;25.25;99934.81;5077775;28;756;-32
2021/04/20 01:22:23;;;;;;;;;;;;;;;28.68;25.25;99933.38;5076130;28;851;-33
2021/04/20 01:24:48;;;;;;;;;;;;;;;27.87;26.80;99928.91;5076247;28;811;-30
2021/04/20 01:27:13;;;;;;;;;;;;;;;29.00;24.99;99921.81;5077419;28;1910;-34
2021/04/20 01:29:39;;;;;;;;;;;;;;;28.82;25.08;99925.19;5077428;28;847;-33
2021/04/20 01:32:04;;;;;;;;;;;;;;;28.60;25.39;99920.06;5081096;28;1169;-32
2021/04/20 01:34:29;;;;;;;;;;;;;;;27.74;27.19;99921.63;5077350;28;815;-31
2021/04/20 01:36:55;;;;;;;;;;;;;;;28.90;25.65;99918.69;5077077;28;807;-32
2021/04/20 01:39:20;;;;;;;;;;;;;;;28.94;25.26;99918.06;5092885;28;873;-31
2021/04/20 01:41:45;;;;;;;;;;;;;;;28.72;25.51;99926.50;5077266;28;818;-31
2021/04/20 01:44:11;;;;;;;;;;;;;;;27.85;27.21;99924.75;5092660;28;803;-31
2021/04/20 01:46:36;;;;;;;;;;;;;;;27.71;27.56;99924.75;5085908;28;1902;-34
2021/04/20 01:49:02;;;;;;;;;;;;;;;28.14;26.99;99932.63;5097706;28;760;-31
2021/04/20 01:51:27;;;;;;;;;;;;;;;28.77;25.49;99925.00;5078814;28;1276;-32
2021/04/20 01:53:52;;;;;;;;;;;;;;;28.73;25.45;99921.88;5097288;28;742;-32
2021/04/20 01:56:18;;;;;;;;;;;;;;;28.21;26.73;99928.88;5097033;28;891;-32
2021/04/20 01:58:43;;;;;;;;;;;;;;;27.65;27.79;99920.13;5097190;28;815;-30
2021/04/20 02:01:10;;;;;;;;;;;;;;;28.57;25.96;99924.03;5096384;28;1049;-30
2021/04/20 02:03:35;;;;;;;;;;;;;;;28.78;25.60;99927.50;5076948;28;720;-30
2021/04/20 02:06:00;;;;;;;;;;;;;;;28.77;25.57;99925.84;5076809;28;1917;-30
2021/04/20 02:08:26;;;;;;;;;;;;;;;27.82;27.43;99919.75;5058916;28;839;-30
2021/04/20 02:10:51;;;;;;;;;;;;;;;28.79;26.08;99931.88;5076576;28;788;-31
2021/04/20 02:13:16;;;;;;;;;;;;;;;28.90;25.47;99924.09;5094464;28;1208;-33
2021/04/20 02:15:42;;;;;;;;;;;;;;;28.80;25.39;99922.72;5096829;28;1245;-32
2021/04/20 02:18:07;;;;;;;;;;;;;;;28.01;27.15;99930.78;5079312;28;1010;-33
2021/04/20 02:20:33;;;;;;;;;;;;;;;28.41;26.52;99924.50;5076098;28;910;-33
2021/04/20 02:22:58;;;;;;;;;;;;;;;28.98;25.37;99926.59;5076814;28;932;-34
2021/04/20 02:25:23;;;;;;;;;;;;;;;28.86;25.46;99929.16;5076774;28;1973;-32
2021/04/20 02:27:49;;;;;;;;;;;;;;;28.44;26.66;99933.03;5075615;28;764;-33
2021/04/20 02:30:15;;;;;;;;;;;;;;;28.31;26.88;99928.44;5076614;28;748;-33
2021/04/20 02:32:40;;;;;;;;;;;;;;;29.07;25.37;99927.19;5076208;28;1001;-31
2021/04/20 02:35:10;;;;;;;;;;;;;;;29.01;25.45;99925.34;5075548;28;838;-35
2021/04/20 02:37:36;;;;;;;;;;;;;;;28.80;25.67;99928.13;5076641;28;819;-32
2021/04/20 02:40:08;;;;;;;;;;;;;;;27.75;27.47;99935.97;5076575;28;771;-35
2021/04/20 02:42:34;;;;;;;;;;;;;;;27.78;27.64;99932.84;5076682;28;779;-31
2021/04/20 02:45:00;;;;;;;;;;;;;;;28.32;26.97;99929.28;5076342;28;870;-34
2021/04/20 02:47:25;;;;;;;;;;;;;;;28.75;25.84;99932.50;5093027;28;1961;-33
2021/04/20 02:49:51;;;;;;;;;;;;;;;28.87;25.64;99941.63;5082582;28;743;-31
2021/04/20 02:52:16;;;;;;;;;;;;;;;28.07;26.92;99938.03;5100451;28;533;-32
2021/04/20 02:54:41;;;;;;;;;;;;;;;28.72;26.30;99937.31;5100383;28;847;-32
2021/04/20 02:57:07;;;;;;;;;;;;;;;28.88;25.63;99939.75;5100268;28;1517;-32
2021/04/20 02:59:32;;;;;;;;;;;;;;;28.75;25.91;99946.03;5100385;28;821;-33
2021/04/20 03:01:57;;;;;;;;;;;;;;;28.61;26.62;99948.81;5081977;28;966;-32
2021/04/20 03:04:22;;;;;;;;;;;;;;;29.04;25.89;99944.72;5082407;28;807;-38
2021/04/20 03:06:48;;;;;;;;;;;;;;;29.01;25.42;99944.31;5082444;28;1902;-32
2021/04/20 03:09:13;;;;;;;;;;;;;;;28.81;25.64;99956.84;5100367;28;800;-33
2021/04/20 03:11:43;;;;;;;;;;;;;;;28.26;25.82;99954.47;5081636;28;1120;-35
2021/04/20 03:14:09;;;;;;;;;;;;;;;28.66;24.73;99954.38;5100286;28;820;-38
2021/04/20 03:16:34;;;;;;;;;;;;;;;28.82;24.14;99953.09;5077154;28;1181;-31
2021/04/20 03:19:01;;;;;;;;;;;;;;;28.33;24.80;99952.59;5079761;28;837;-31
2021/04/20 03:21:26;;;;;;;;;;;;;;;27.90;25.38;99951.97;5079918;28;772;-31
2021/04/20 03:23:51;;;;;;;;;;;;;;;27.39;26.12;99956.91;5078845;28;734;-30
2021/04/20 03:26:17;;;;;;;;;;;;;;;27.55;26.17;99966.47;5080054;28;1975;-29
2021/04/20 03:28:42;;;;;;;;;;;;;;;28.11;25.22;99964.44;5079777;28;838;-37
2021/04/20 03:31:07;;;;;;;;;;;;;;;27.96;25.15;99970.06;5078758;28;1005;-38
2021/04/20 03:33:33;;;;;;;;;;;;;;;26.80;25.56;99975.31;5074374;28;998;-26
2021/04/20 03:35:59;;;;;;;;;;;;;;;26.38;26.52;99976.09;5074990;28;808;-29
2021/04/20 03:38:24;;;;;;;;;;;;;;;26.39;27.27;99975.91;5075390;28;804;-26
2021/04/20 03:40:52;;;;;;;;;;;;;;;26.60;27.03;99976.88;5059540;28;771;-30
2021/04/20 03:43:18;;;;;;;;;;;;;;;27.44;25.76;99981.44;5059413;28;870;-30
2021/04/20 03:45:48;;;;;;;;;;;;;;;27.75;25.38;99995.41;5062561;28;1973;-27
2021/04/20 03:48:18;;;;;;;;;;;;;;;27.10;26.25;99991.25;5076984;28;1010;-27
2021/04/20 03:50:49;;;;;;;;;;;;;;;26.63;26.68;99995.38;5078022;28;1488;-27
2021/04/20 03:53:14;;;;;;;;;;;;;;;27.40;25.87;99999.06;5080102;28;726;-29
2021/04/20 03:55:40;;;;;;;;;;;;;;;27.82;25.50;100001.69;5078411;28;747;-39
2021/04/20 03:58:05;;;;;;;;;;;;;;;27.30;26.56;100001.31;5077847;28;775;-32
2021/04/20 04:00:30;;;;;;;;;;;;;;;26.61;26.59;100002.00;5079341;28;759;-30
2021/04/20 04:02:56;;;;;;;;;;;;;;;26.65;26.43;100006.81;5078312;28;966;-35
2021/04/20 04:05:22;;;;;;;;;;;;;;;26.76;25.93;100012.66;5077838;28;756;-37
2021/04/20 04:07:48;;;;;;;;;;;;;;;26.51;25.74;100011.25;5078148;28;2022;-37
2021/04/20 04:10:14;;;;;;;;;;;;;;;26.92;25.69;100014.22;5079047;28;780;-39
2021/04/20 04:12:39;;;;;;;;;;;;;;;25.07;27.67;100014.56;5066249;28;1122;-39
2021/04/20 04:15:05;;;;;;;;;;;;;;;24.05;29.30;100018.38;5065507;28;1213;-37
2021/04/20 04:17:30;;;;;;;;;;;;;;;23.89;29.94;100023.88;5079174;28;963;-35
2021/04/20 04:19:55;;;;;;;;;;;;;;;24.07;29.25;100031.63;5077766;28;795;-38
2021/04/20 04:22:25;;;;;;;;;;;;;;;24.49;29.71;100028.63;5077898;28;811;-34
2021/04/20 04:24:54;;;;;;;;;;;;;;;24.24;29.46;100026.97;5077227;28;811;-33
2021/04/20 04:27:27;;;;;;;;;;;;;;;24.14;29.04;100026.38;5077620;28;1902;-36
2021/04/20 04:29:53;;;;;;;;;;;;;;;23.87;30.74;100024.06;5078447;28;886;-35
2021/04/20 04:32:18;;;;;;;;;;;;;;;24.33;29.76;100027.75;5083783;28;1021;-35
2021/04/20 04:34:44;;;;;;;;;;;;;;;24.21;30.17;100030.03;5078721;28;1529;-36
2021/04/20 04:37:09;;;;;;;;;;;;;;;24.02;30.41;100034.84;5094928;28;724;-41
2021/04/20 04:39:34;;;;;;;;;;;;;;;24.50;30.14;100039.19;5078360;28;768;-39
2021/04/20 04:42:00;;;;;;;;;;;;;;;24.61;30.09;100034.38;5094013;28;795;-34
2021/04/20 04:44:25;;;;;;;;;;;;;;;24.73;28.39;100043.66;5093964;28;804;-35
2021/04/20 04:46:50;;;;;;;;;;;;;;;24.73;29.75;100040.13;5093155;28;1898;-35
2021/04/20 04:49:16;;;;;;;;;;;;;;;26.17;27.85;100045.19;5078354;28;772;-32
2021/04/20 04:51:41;;;;;;;;;;;;;;;26.72;27.08;100047.31;5060478;28;809;-30
2021/04/20 04:54:08;;;;;;;;;;;;;;;26.81;27.26;100052.56;5078216;28;866;-38
2021/04/20 04:56:34;;;;;;;;;;;;;;;26.88;26.67;100056.09;5060461;28;906;-35
2021/04/20 04:58:59;;;;;;;;;;;;;;;27.07;26.74;100056.47;5059900;28;805;-35
2021/04/20 05:01:24;;;;;;;;;;;;;;;26.60;26.86;100060.50;5077824;28;955;-32
2021/04/20 05:03:49;;;;;;;;;;;;;;;26.05;27.65;100063.75;5077167;28;871;-37
2021/04/20 05:06:16;;;;;;;;;;;;;;;26.42;27.70;100069.09;5076546;28;1969;-34
2021/04/20 05:08:41;;;;;;;;;;;;;;;26.94;26.82;100070.69;5078122;28;768;-38
2021/04/20 05:11:06;;;;;;;;;;;;;;;26.76;26.69;100078.25;5076944;28;855;-33
2021/04/20 05:13:32;;;;;;;;;;;;;;;26.38;27.19;100076.72;5079834;28;1242;-38
2021/04/20 05:16:06;;;;;;;;;;;;;;;26.74;26.55;100080.31;5098044;28;1045;-41
2021/04/20 05:18:33;;;;;;;;;;;;;;;26.67;26.53;100074.03;5097373;28;896;-38
2021/04/20 05:20:58;;;;;;;;;;;;;;;26.82;26.78;100081.19;5079859;28;820;-36
2021/04/20 05:23:23;;;;;;;;;;;;;;;27.12;26.41;100079.13;5080004;28;795;-31
2021/04/20 05:25:50;;;;;;;;;;;;;;;27.14;26.31;100084.34;5097695;28;1965;-32
2021/04/20 05:28:15;;;;;;;;;;;;;;;26.52;26.81;100083.06;5097828;28;875;-34
2021/04/20 05:30:41;;;;;;;;;;;;;;;26.11;27.20;100084.53;5096484;28;811;-39
2021/04/20 05:33:06;;;;;;;;;;;;;;;26.38;27.34;100086.66;5109973;28;888;-35
2021/04/20 05:35:31;;;;;;;;;;;;;;;26.71;26.82;100091.50;5118176;28;812;-34
2021/04/20 05:37:57;;;;;;;;;;;;;;;26.56;27.11;100090.78;5117689;28;917;-37
2021/04/20 05:40:23;;;;;;;;;;;;;;;26.98;26.38;100091.69;5117565;28;866;-35
2021/04/20 05:42:51;;;;;;;;;;;;;;;27.20;26.11;100097.03;5117955;28;735;-33
2021/04/20 05:45:17;;;;;;;;;;;;;;;27.19;26.04;100108.03;5118152;28;735;-35
2021/04/20 05:47:42;;;;;;;;;;;;;;;27.20;26.51;100106.97;5077797;28;1969;-35
2021/04/20 05:50:09;;;;;;;;;;;;;;;26.83;26.50;100115.22;5077460;28;770;-34
2021/04/20 05:52:35;;;;;;;;;;;;;;;26.59;26.80;100107.38;5077047;28;779;-34
2021/04/20 05:55:00;;;;;;;;;;;;;;;26.15;26.75;100118.19;5076976;28;762;-31
2021/04/20 05:57:25;;;;;;;;;;;;;;;26.18;27.15;100116.94;5077019;28;871;-36
2021/04/20 05:59:57;;;;;;;;;;;;;;;26.23;26.96;100125.28;5076473;28;829;-30
2021/04/20 06:02:22;;;;;;;;;;;;;;;26.16;27.17;100125.22;5076303;28;954;-34
2021/04/20 06:04:50;;;;;;;;;;;;;;;25.89;27.63;100126.81;5075746;28;756;-34
2021/04/20 06:07:15;;;;;;;;;;;;;;;25.96;27.53;100125.00;5075075;28;1963;-31
2021/04/20 06:09:44;;;;;;;;;;;;;;;26.51;27.39;100126.41;5076913;28;797;-35
2021/04/20 06:12:10;;;;;;;;;;;;;;;27.14;26.52;100128.34;5077058;28;1190;-37
2021/04/20 06:14:35;;;;;;;;;;;;;;;26.70;27.18;100126.75;5058452;28;1087;-35
2021/04/20 06:17:00;;;;;;;;;;;;;;;26.80;27.28;100129.97;5058821;28;959;-35
2021/04/20 06:19:26;;;;;;;;;;;;;;;27.38;26.25;100128.91;5075621;28;898;-33
2021/04/20 06:21:51;;;;;;;;;;;;;;;27.31;26.60;100141.53;5076269;28;815;-40
2021/04/20 06:24:16;;;;;;;;;;;;;;;26.76;27.58;100126.81;5075615;28;799;-34
2021/04/20 06:26:42;;;;;;;;;;;;;;;26.55;28.07;100130.38;5076243;28;1965;-38
2021/04/20 06:29:07;;;;;;;;;;;;;;;26.36;28.24;100137.28;5076166;28;925;-37
2021/04/20 06:31:33;;;;;;;;;;;;;;;26.78;27.63;100138.25;5075771;28;847;-37
2021/04/20 06:33:59;;;;;;;;;;;;;;;27.30;26.98;100147.13;5076673;28;878;-37
2021/04/20 06:36:24;;;;;;;;;;;;;;;27.28;26.98;100150.03;5075284;28;1245;-36
2021/04/20 06:38:49;;;;;;;;;;;;;;;26.89;27.45;100144.97;5076323;28;796;-37
2021/04/20 06:41:14;;;;;;;;;;;;;;;26.99;27.75;100141.09;5076404;28;785;-34
2021/04/20 06:43:57;;;;;;;;;;;;;;;27.42;26.85;100150.09;5075093;28;914;-36
2021/04/20 06:46:39;;;;;;;;;;;;;;;26.83;27.51;100153.84;5069768;28;2223;-36
2021/04/20 06:49:05;;;;;;;;;;;;;;;26.65;27.96;100154.34;5074680;28;1129;-35
2021/04/20 06:51:38;;;;;;;;;;;;;;;26.55;28.50;100161.91;5075054;28;840;-37
2021/04/20 06:54:09;;;;;;;;;;;;;;;26.84;28.06;100160.91;5076623;28;811;-36
2021/04/20 06:56:39;;;;;;;;;;;;;;;27.71;26.68;100169.81;5075069;28;784;-36
2021/04/20 06:59:11;;;;;;;;;;;;;;;27.48;26.85;100165.50;5076139;28;824;-35
2021/04/20 07:01:39;;;;;;;;;;;;;;;27.04;27.63;100170.22;5076265;28;966;-40
2021/04/20 07:04:11;;;;;;;;;;;;;;;26.99;28.00;100168.91;5076210;28;808;-39
2021/04/20 07:06:37;;;;;;;;;;;;;;;27.39;27.29;100171.06;5076173;28;1969;-40
2021/04/20 07:09:05;;;;;;;;;;;;;;;26.93;27.97;100174.25;5075211;28;816;-37
2021/04/20 07:11:34;;;;;;;;;;;;;;;26.95;27.88;100173.03;5078100;28;1171;-41
2021/04/20 07:14:01;;;;;;;;;;;;;;;26.49;28.97;100179.72;5078910;28;798;-38
2021/04/20 07:16:31;;;;;;;;;;;;;;;27.28;27.66;100179.72;5074061;28;1599;-39
2021/04/20 07:19:17;;;;;;;;;;;;;;;27.71;26.88;100186.84;5075868;28;823;-39
2021/04/20 07:22:01;;;;;;;;;;;;;;;27.02;27.85;100192.88;5075448;28;1393;-39
2021/04/20 07:24:52;;;;;;;;;;;;;;;27.15;27.86;100185.88;5076063;28;871;-39
2021/04/20 07:27:24;;;;;;;;;;;;;;;27.52;26.97;100193.81;5073602;28;1906;-40
2021/04/20 07:30:02;;;;;;;;;;;;;;;27.35;27.46;100194.13;5076159;28;744;-31
2021/04/20 07:32:31;;;;;;;;;;;;;;;27.17;28.01;100200.03;5075515;28;1418;-34
2021/04/20 07:35:06;;;;;;;;;;;;;;;27.39;27.50;100203.47;5077424;28;807;-35
2021/04/20 07:37:39;;;;;;;;;;;;;;;27.47;27.20;100199.81;5079636;28;759;-41
2021/04/20 07:40:04;;;;;;;;;;;;;;;27.35;27.47;100193.28;5078538;28;768;-37
2021/04/20 07:42:36;;;;;;;;;;;;;;;27.02;28.30;100200.97;5079530;28;805;-31
2021/04/20 07:45:28;;;;;;;;;;;;;;;26.98;28.58;100196.94;5078298;28;1315;-36
2021/04/20 07:47:55;;;;;;;;;;;;;;;27.39;27.53;100208.06;5075507;28;1906;-38
2021/04/20 07:50:24;;;;;;;;;;;;;;;27.00;27.91;100197.59;5077933;28;1147;-37
2021/04/20 07:52:58;;;;;;;;;;;;;;;26.59;28.90;100207.19;5080004;28;1153;-33
2021/04/20 07:55:24;;;;;;;;;;;;;;;26.89;27.91;100211.63;5081600;28;784;-37
2021/04/20 07:57:51;;;;;;;;;;;;;;;26.95;27.92;100215.38;5081660;28;858;-38
2021/04/20 08:00:24;;;;;;;;;;;;;;;26.72;28.43;100211.03;5099966;28;1683;-33
2021/04/20 08:02:54;;;;;;;;;;;;;;;26.51;29.10;100218.94;5066472;28;958;-30
2021/04/20 08:05:25;;;;;;;;;;;;;;;27.13;27.88;100225.72;5077445;28;835;-23
2021/04/20 08:07:54;;;;;;;;;;;;;;;27.56;26.52;100232.88;5079341;28;1957;-34
2021/04/20 08:10:19;;;;;;;;;;;;;;;26.78;27.23;100231.84;5078653;28;875;-36
2021/04/20 08:12:48;;;;;;;;;;;;;;;26.90;27.96;100226.78;5091242;28;1123;-33
2021/04/20 08:15:15;;;;;;;;;;;;;;;27.36;27.59;100227.38;5099113;28;1113;-30
2021/04/20 08:17:44;;;;;;;;;;;;;;;27.31;27.62;100224.44;5066817;28;1049;-31
2021/04/20 08:20:13;;;;;;;;;;;;;;;26.83;28.03;100231.25;5077574;28;784;-33
2021/04/20 08:22:38;;;;;;;;;;;;;;;26.71;28.36;100236.38;5078831;28;791;-30
2021/04/20 08:25:11;;;;;;;;;;;;;;;26.86;28.35;100239.81;5078725;28;802;-39
2021/04/20 08:27:54;;;;;;;;;;;;;;;27.48;27.07;100241.13;5078961;28;1910;-38
2021/04/20 08:30:21;;;;;;;;;;;;;;;27.15;27.93;100247.97;5078684;28;770;-36
2021/04/20 08:32:47;;;;;;;;;;;;;;;26.60;28.64;100251.19;5088188;28;997;-39
2021/04/20 08:35:17;;;;;;;;;;;;;;;27.04;28.04;100252.06;5060838;28;910;-35
2021/04/20 08:37:53;;;;;;;;;;;;;;;27.34;27.43;100259.94;5078942;28;750;-37
2021/04/20 08:40:19;;;;;;;;;;;;;;;27.71;26.65;100264.41;5078477;28;763;-40
2021/04/20 08:42:47;;;;;;;;;;;;;;;27.13;27.52;100267.06;5078479;28;838;-39
2021/04/20 08:45:31;;;;;;;;;;;;;;;26.80;28.10;100264.88;5077367;28;744;-37
2021/04/20 08:48:03;;;;;;;;;;;;;;;26.88;28.50;100264.75;5078938;28;1894;-39
2021/04/20 08:50:30;;;;;;;;;;;;;;;27.37;27.38;100264.97;5076568;28;895;-38
2021/04/20 08:53:01;;;;;;;;;;;;;;;26.78;28.00;100269.63;5115929;28;1190;-34
2021/04/20 08:55:33;;;;;;;;;;;;;;;26.71;28.34;100260.66;5118142;28;866;-34
2021/04/20 08:58:09;;;;;;;;;;;;;;;26.97;28.33;100268.16;5118430;28;792;-38
2021/04/20 09:00:40;;;;;;;;;;;;;;;27.78;26.98;100272.53;5099923;28;887;-35
2021/04/20 09:03:08;;;;;;;;;;;;;;;27.42;27.41;100272.50;5081109;28;958;-37
2021/04/20 09:05:33;;;;;;;;;;;;;;;26.80;28.46;100267.59;5098261;28;744;-40
2021/04/20 09:08:02;;;;;;;;;;;;;;;27.09;28.46;100273.88;5097886;28;1973;-38
2021/04/20 09:10:31;;;;;;;;;;;;;;;27.45;27.74;100269.41;5097882;28;788;-33
2021/04/20 09:13:12;;;;;;;;;;;;;;;27.46;27.37;100272.94;5082585;28;1126;-35
2021/04/20 09:15:41;;;;;;;;;;;;;;;26.96;28.49;100279.97;5059758;28;1222;-33
2021/04/20 09:18:06;;;;;;;;;;;;;;;27.00;28.16;100283.97;5078150;28;1014;-34
2021/04/20 09:20:42;;;;;;;;;;;;;;;27.30;28.26;100290.25;5076275;28;831;-35
2021/04/20 09:23:13;;;;;;;;;;;;;;;27.66;27.20;100291.97;5075737;28;1141;-33
2021/04/20 09:25:47;;;;;;;;;;;;;;;27.58;27.62;100295.66;5077414;28;1922;-35
2021/04/20 09:28:17;;;;;;;;;;;;;;;27.19;28.30;100305.13;5085932;28;883;-40
2021/04/20 09:30:55;;;;;;;;;;;;;;;26.93;28.39;100301.94;5099479;28;880;-31
2021/04/20 09:33:44;;;;;;;;;;;;;;;27.49;28.01;100307.66;5077484;28;786;-34
2021/04/20 09:36:09;;;;;;;;;;;;;;;27.24;27.97;100308.09;5094831;28;1586;-36
2021/04/20 09:38:36;;;;;;;;;;;;;;;26.78;28.95;100318.19;5117921;28;823;-37
2021/04/20 09:41:01;;;;;;;;;;;;;;;26.48;29.26;100315.56;5099546;28;801;-34
2021/04/20 09:43:29;;;;;;;;;;;;;;;27.14;28.43;100308.41;5100080;28;770;-33
2021/04/20 09:46:12;;;;;;;;;;;;;;;27.72;27.65;100318.25;5090589;28;1973;-32
2021/04/20 09:48:56;;;;;;;;;;;;;;;27.77;26.60;100324.91;5059519;28;764;-33
2021/04/20 09:51:23;;;;;;;;;;;;;;;27.34;27.95;100330.16;5078255;28;947;-35
2021/04/20 09:53:56;;;;;;;;;;;;;;;27.36;28.19;100324.59;5079038;28;828;-35
2021/04/20 09:56:36;;;;;;;;;;;;;;;27.61;27.43;100330.38;5096882;28;863;-35
2021/04/20 09:59:16;;;;;;;;;;;;;;;27.57;27.69;100333.69;5097124;28;1009;-38
2021/04/20 10:01:45;;;;;;;;;;;;;;;27.48;27.73;100336.53;5091329;28;950;-38
2021/04/20 10:04:17;;;;;;;;;;;;;;;27.63;27.52;100338.28;5059132;28;838;-32
2021/04/20 10:07:00;;;;;;;;;;;;;;;27.68;27.77;100332.28;5058907;28;1914;-31
2021/04/20 10:09:38;;;;;;;;;;;;;;;27.93;27.19;100332.69;5059011;28;826;-31
2021/04/20 10:12:22;;;;;;;;;;;;;;;27.52;27.81;100347.78;5076888;28;1306;-35
2021/04/20 10:14:53;;;;;;;;;;;;;;;27.14;28.71;100343.50;5075754;28;1232;-35
2021/04/20 10:17:27;;;;;;;;;;;;;;;27.90;27.64;100343.06;5075600;28;827;-36
2021/04/20 10:19:58;;;;;;;;;;;;;;;28.06;27.21;100352.75;5093674;28;797;-37
2021/04/20 10:22:29;;;;;;;;;;;;;;;27.19;28.45;100353.72;5116820;28;791;-37
2021/04/20 10:25:07;;;;;;;;;;;;;;;26.71;29.21;100366.69;5098746;28;960;-40
2021/04/20 10:27:32;;;;;;;;;;;;;;;27.28;28.75;100355.25;5065610;28;1906;-40
2021/04/20 10:30:01;;;;;;;;;;;;;;;27.70;28.13;100368.94;5057420;28;1047;-39
2021/04/20 10:32:30;;;;;;;;;;;;;;;27.34;28.53;100361.75;5059016;28;910;-34
2021/04/20 10:34:55;;;;;;;;;;;;;;;27.54;28.54;100369.19;5076034;28;997;-40
2021/04/20 10:37:21;;;;;;;;;;;;;;;27.89;27.95;100360.34;5074302;28;1011;-38
2021/04/20 10:39:46;;;;;;;;;;;;;;;28.30;27.89;100353.28;5074743;28;1078;-39
2021/04/20 10:42:12;;;;;;;;;;;;;;;28.48;27.00;100358.16;5074705;28;1006;-38
2021/04/20 10:44:37;;;;;;;;;;;;;;;28.45;26.90;100358.56;5080563;28;1275;-39
2021/04/20 10:47:02;;;;;;;;;;;;;;;28.44;27.23;100360.47;5077744;28;1913;-39
2021/04/20 10:49:28;;;;;;;;;;;;;;;28.63;27.23;100357.22;5067911;28;1010;-38
2021/04/20 10:52:00;;;;;;;;;;;;;;;28.77;26.71;100360.78;5076605;28;1066;-39
2021/04/20 10:54:30;;;;;;;;;;;;;;;28.67;26.96;100371.97;5075205;28;911;-38
2021/04/20 10:56:55;;;;;;;;;;;;;;;28.51;27.61;100365.88;5074519;28;886;-31
2021/04/20 10:59:30;;;;;;;;;;;;;;;28.88;27.19;100371.00;5074636;28;900;-31
2021/04/20 11:01:56;;;;;;;;;;;;;;;28.84;27.11;100365.16;5058358;28;1162;-30
2021/04/20 11:04:23;;;;;;;;;;;;;;;28.68;27.03;100374.50;5057072;28;1034;-34
2021/04/20 11:07:09;;;;;;;;;;;;;;;28.77;27.33;100368.91;5057477;28;1901;-38
2021/04/20 11:09:34;;;;;;;;;;;;;;;28.63;27.56;100370.75;5077394;28;948;-38
2021/04/20 11:12:10;;;;;;;;;;;;;;;28.86;27.34;100375.81;5073685;28;1120;-32
2021/04/20 11:14:36;;;;;;;;;;;;;;;28.78;27.23;100371.41;5078990;28;1156;-33
2021/04/20 11:17:01;;;;;;;;;;;;;;;28.60;27.11;100371.97;5079027;28;1137;-34
2021/04/20 11:19:27;;;;;;;;;;;;;;;28.11;28.59;100370.03;5079306;28;1014;-37
2021/04/20 11:21:52;;;;;;;;;;;;;;;28.34;28.25;100377.03;5067741;28;908;-31
2021/04/20 11:24:18;;;;;;;;;;;;;;;28.70;27.37;100380.53;5061154;28;976;-36
2021/04/20 11:26:43;;;;;;;;;;;;;;;28.73;27.32;100372.00;5079106;28;1963;-39
2021/04/20 11:29:10;;;;;;;;;;;;;;;28.57;27.88;100381.34;5077360;28;987;-40
2021/04/20 11:31:44;;;;;;;;;;;;;;;28.72;27.58;100378.47;5080076;28;1069;-40
2021/04/20 11:34:17;;;;;;;;;;;;;;;28.59;27.71;100379.22;5100436;28;1011;-32
2021/04/20 11:36:52;;;;;;;;;;;;;;;28.54;27.77;100378.19;5101420;28;923;-35
2021/04/20 11:39:36;;;;;;;;;;;;;;;28.53;27.72;100373.81;5119167;28;1049;-38
2021/04/20 11:42:06;;;;;;;;;;;;;;;28.35;28.45;100380.59;5119767;28;982;-38
2021/04/20 11:44:38;;;;;;;;;;;;;;;28.51;27.90;100375.88;5119445;28;1056;-40
2021/04/20 11:47:07;;;;;;;;;;;;;;;28.48;28.38;100375.25;5090233;28;1902;-38
2021/04/20 11:49:32;;;;;;;;;;;;;;;28.43;28.30;100375.00;5078848;28;838;-32
2021/04/20 11:52:02;;;;;;;;;;;;;;;28.54;28.23;100380.91;5077345;28;1070;-36
2021/04/20 11:54:28;;;;;;;;;;;;;;;28.44;28.41;100386.69;5079027;28;811;-35
2021/04/20 11:56:57;;;;;;;;;;;;;;;28.42;28.16;100383.34;5077455;28;889;-38
2021/04/20 11:59:22;;;;;;;;;;;;;;;28.40;28.27;100379.97;5078001;28;1057;-32
2021/04/20 12:01:48;;;;;;;;;;;;;;;28.30;28.60;100373.06;5078478;28;911;-36
2021/04/20 12:04:13;;;;;;;;;;;;;;;28.40;28.26;100374.56;5077736;28;1010;-36
2021/04/20 12:06:48;;;;;;;;;;;;;;;28.43;28.24;100375.00;5075215;28;1910;-40
2021/04/20 12:09:13;;;;;;;;;;;;;;;28.36;28.84;100383.09;5080564;28;1077;-37
2021/04/20 12:11:39;;;;;;;;;;;;;;;28.40;28.63;100383.53;5075921;28;916;-37
2021/04/20 12:14:05;;;;;;;;;;;;;;;28.41;28.37;100387.09;5060421;28;1019;-37
2021/04/20 12:16:33;;;;;;;;;;;;;;;28.37;28.37;100383.94;5060797;28;1420;-38
2021/04/20 12:18:59;;;;;;;;;;;;;;;27.73;27.70;100382.06;5076490;28;748;-36
2021/04/20 12:21:25;;;;;;;;;;;;;;;27.34;28.00;100383.38;5101149;28;1042;-34
2021/04/20 12:23:51;;;;;;;;;;;;;;;27.57;28.01;100385.88;5100567;28;1030;-35
2021/04/20 12:26:17;;;;;;;;;;;;;;;28.00;27.75;100392.22;5100500;28;1891;-41
2021/04/20 12:28:44;;;;;;;;;;;;;;;28.05;28.13;100384.34;5099979;28;973;-36
2021/04/20 12:31:10;;;;;;;;;;;;;;;28.14;27.67;100385.03;5098453;28;1034;-37
2021/04/20 12:33:35;;;;;;;;;;;;;;;28.19;27.91;100381.75;5116232;28;1023;-38
2021/04/20 12:36:00;;;;;;;;;;;;;;;28.22;28.20;100384.88;5118177;28;966;-36
2021/04/20 12:38:29;;;;;;;;;;;;;;;28.26;27.77;100382.59;5118274;28;1093;-37
2021/04/20 12:40:59;;;;;;;;;;;;;;;28.31;28.11;100385.53;5060062;28;831;-37
2021/04/20 12:43:24;;;;;;;;;;;;;;;28.32;27.86;100379.09;5078181;28;1062;-40
2021/04/20 12:45:50;;;;;;;;;;;;;;;27.91;27.56;100375.31;5075580;28;1976;-38
2021/04/20 12:48:16;;;;;;;;;;;;;;;27.52;27.71;100377.50;5076944;28;963;-38
2021/04/20 12:50:48;;;;;;;;;;;;;;;27.22;28.05;100383.88;5075994;28;967;-40
2021/04/20 12:53:14;;;;;;;;;;;;;;;27.07;28.43;100372.31;5080731;28;979;-42
2021/04/20 12:55:40;;;;;;;;;;;;;;;27.00;27.54;100367.66;5099373;28;878;-41
2021/04/20 12:58:06;;;;;;;;;;;;;;;26.14;29.29;100377.16;5117584;28;835;-43
2021/04/20 13:00:32;;;;;;;;;;;;;;;26.35;28.56;100376.44;5099929;28;1062;-41